Du har inga inställningar för hoppväder.nu

Hoppväder.nu

Senast uppdaterat 03:46

UTC-tid

2018-04-26 kl. 01:46


Sol och måne

Solen går upp 5:05 och går ner 20:38 (beräknade cirkatider)
Nästa fullmåne blir om 4 dagar (2018-04-30)

METAR

ESOW (Västerås)
(26 minuter sedan)
ESOW 260120Z AUTO 24003KT 9999 BKN066/// 06/02 Q0998=



ESSA (Arlanda)
(26 minuter sedan)
ESSA 260120Z 25007KT CAVOK 05/04 Q0997 NOSIG=



ESKN (Skavsta)
(26 minuter sedan)
ESKN 260120Z 27007KT CAVOK 01/00 Q0998=



ESOE (Örebro)
(26 minuter sedan)
ESOE 260120Z AUTO 25010KT 9999 OVC007/// 06/05 Q0999=



ESSD (Borlänge)
(26 minuter sedan)
ESSD 260120Z AUTO 02003KT 9999 OVC066/// 04/M01 Q0997=



TAF

ESOW (Västerås)
(346 minuter sedan)
ESOW 252000Z NIL=



ESSA (Arlanda)
(1576 minuter sedan)
ESSA 252330Z 2600/2624 24005KT 9999 SCT030 BKN050 TEMPO 2608/2612 SHRA BKN012 BKN030CB=



ESKN (Skavsta)
(1576 minuter sedan)
ESKN 252330Z 2600/2624 27008KT CAVOK PROB40 2605/2609 BKN009 PROB40 2612/2618 SHRA BKN040CB=



ESOE (Örebro)
(76 minuter sedan)
ESOE RRA 260030Z 2601/2609 24007KT 9999 OVC007 TEMPO 2601/2604 BKN004 PROB40 2604/2607 BKN010 BECMG 2607/2609 BKN015=



ESSD (Borlänge)
(346 minuter sedan)
ESSD 252000Z NIL=





Kodnycklar till TAF och METAR






LHP

(Västerås är område G2b i Södra delen)

Prognos är inte uppdaterad




Spotting

Hur fungerar spotthjälpen och Vindkartan?

Markvind är ca 0 m/s.



Vindkartan

Senast uppdaterad 03:46



All data kommer från LFV.se